Time;durP1;ratioP1;P1;durP2;ratioP2;P2;SDS_P1;SDS_P2;PMS_P1;PMS_P2;Temp;Humidity;BMP_temperature;BMP_pressure;BME280_temperature;BME280_humidity;BME280_pressure;Samples;Min_cycle;Max_cycle;Signal;HPM_P1;HPM_P2
2023/04/17 00:01:16;;;;;;;3.05;2.25;;;14.20;61.20;;;;;;5036242;28;20084;-81
2023/04/17 00:03:43;;;;;;;6.07;2.92;;;14.10;61.00;;;;;;5014555;28;20037;-81
2023/04/17 00:06:12;;;;;;;2.97;2.25;;;14.10;61.10;;;;;;5004820;28;20084;-81
2023/04/17 00:08:39;;;;;;;5.22;2.50;;;14.10;61.10;;;;;;5000717;28;20026;-81
2023/04/17 00:11:05;;;;;;;5.07;2.80;;;14.10;61.10;;;;;;4996719;28;20041;-81
2023/04/17 00:13:31;;;;;;;4.55;2.47;;;14.10;61.20;;;;;;5016271;28;20125;-82
2023/04/17 00:15:57;;;;;;;3.33;2.70;;;14.10;61.20;;;;;;5013603;28;20152;-84
2023/04/17 00:18:23;;;;;;;4.28;2.35;;;14.10;61.20;;;;;;5002905;28;20061;-82
2023/04/17 00:20:49;;;;;;;2.95;2.25;;;14.10;61.30;;;;;;5000278;28;20038;-83
2023/04/17 00:23:15;;;;;;;3.22;2.10;;;14.10;61.40;;;;;;5008354;28;20455;-82
2023/04/17 00:25:40;;;;;;;4.05;2.63;;;14.00;61.20;;;;;;5004467;28;20107;-82
2023/04/17 00:28:06;;;;;;;4.95;2.50;;;14.00;61.30;;;;;;5019372;28;20083;-83
2023/04/17 00:30:32;;;;;;;3.95;2.33;;;14.00;61.40;;;;;;4984669;28;20089;-83
2023/04/17 00:32:58;;;;;;;5.30;2.95;;;14.00;61.40;;;;;;4993059;28;20072;-83
2023/04/17 00:35:24;;;;;;;3.92;2.50;;;14.00;62.00;;;;;;5004205;28;20268;-81
2023/04/17 00:37:50;;;;;;;2.40;2.20;;;14.00;62.00;;;;;;5010367;28;20044;-82
2023/04/17 00:40:16;;;;;;;3.15;2.17;;;14.00;61.50;;;;;;4998662;28;20029;-81
2023/04/17 00:42:44;;;;;;;2.42;1.98;;;13.90;61.40;;;;;;4991191;28;20029;-82
2023/04/17 00:45:10;;;;;;;3.72;2.42;;;14.00;61.60;;;;;;5010499;28;20061;-81
2023/04/17 00:47:37;;;;;;;4.47;2.13;;;13.90;61.50;;;;;;4990476;28;20026;-81
2023/04/17 00:50:04;;;;;;;2.80;2.00;;;13.90;61.50;;;;;;5004540;28;20517;-81
2023/04/17 00:52:30;;;;;;;4.35;2.60;;;13.90;61.50;;;;;;5008610;28;20310;-81
2023/04/17 00:54:58;;;;;;;3.25;1.98;;;13.90;61.60;;;;;;5007527;28;20110;-81
2023/04/17 00:57:26;;;;;;;3.97;2.08;;;13.90;61.60;;;;;;5021211;28;20045;-81
2023/04/17 00:59:52;;;;;;;3.03;2.42;;;13.90;61.60;;;;;;5015480;28;20037;-80
2023/04/17 01:02:18;;;;;;;4.22;1.85;;;13.90;61.70;;;;;;5000904;28;20508;-81
2023/04/17 01:04:44;;;;;;;4.32;2.65;;;13.90;61.70;;;;;;5001348;28;20190;-81
2023/04/17 01:07:10;;;;;;;2.65;1.80;;;13.90;61.70;;;;;;5006388;28;20041;-81
2023/04/17 01:09:37;;;;;;;3.72;2.30;;;13.90;61.80;;;;;;5007928;28;20084;-81
2023/04/17 01:12:23;;;;;;;4.78;2.80;;;13.80;61.70;;;;;;4989706;28;20037;-82
2023/04/17 01:14:53;;;;;;;2.55;1.73;;;13.80;61.70;;;;;;5013320;28;20033;-81
2023/04/17 01:17:20;;;;;;;4.70;2.33;;;13.80;61.70;;;;;;5007609;28;20059;-82
2023/04/17 01:19:47;;;;;;;2.28;2.08;;;13.80;62.20;;;;;;4993427;28;20038;-81
2023/04/17 01:22:15;;;;;;;6.35;2.13;;;13.80;61.80;;;;;;5023625;28;20542;-81
2023/04/17 01:24:42;;;;;;;4.20;1.90;;;13.80;61.80;;;;;;5004835;28;20048;-81
2023/04/17 01:27:08;;;;;;;2.97;1.92;;;13.80;61.80;;;;;;5024599;28;20284;-81
2023/04/17 01:29:34;;;;;;;4.25;2.38;;;13.80;61.90;;;;;;5022301;28;20025;-81
2023/04/17 01:32:00;;;;;;;4.35;2.47;;;13.80;61.90;;;;;;5006327;28;20099;-82
2023/04/17 01:34:26;;;;;;;3.33;2.80;;;13.80;61.90;;;;;;5020158;28;20406;-82
2023/04/17 01:36:52;;;;;;;2.85;2.42;;;13.80;62.50;;;;;;5006688;28;20046;-82
2023/04/17 01:39:18;;;;;;;4.07;2.53;;;13.80;62.00;;;;;;5007667;28;20556;-83
2023/04/17 01:41:44;;;;;;;3.50;2.20;;;13.80;62.00;;;;;;5021998;28;20037;-83
2023/04/17 01:44:10;;;;;;;3.75;2.55;;;13.80;62.00;;;;;;5020233;28;20036;-83
2023/04/17 01:46:36;;;;;;;2.83;2.20;;;13.80;62.00;;;;;;5015425;28;20336;-83
2023/04/17 01:49:01;;;;;;;3.35;2.35;;;13.80;62.00;;;;;;5027748;28;20049;-83
2023/04/17 01:51:27;;;;;;;3.95;2.05;;;13.80;62.10;;;;;;5009726;28;20138;-82
2023/04/17 01:53:54;;;;;;;4.07;2.47;;;13.80;62.10;;;;;;5004867;28;20489;-82
2023/04/17 01:56:20;;;;;;;3.45;2.58;;;13.80;62.10;;;;;;5009720;28;20528;-82
2023/04/17 01:58:46;;;;;;;4.43;2.38;;;13.70;62.00;;;;;;4996333;28;20192;-83
2023/04/17 02:01:12;;;;;;;5.05;3.28;;;13.80;62.20;;;;;;5022734;28;20121;-82
2023/04/17 02:03:38;;;;;;;3.95;2.50;;;13.70;62.10;;;;;;5027310;28;20124;-82
2023/04/17 02:06:04;;;;;;;2.67;2.20;;;13.70;62.10;;;;;;5027268;28;20056;-82
2023/04/17 02:08:30;;;;;;;4.95;2.67;;;13.70;62.10;;;;;;5020608;28;20144;-83
2023/04/17 02:10:57;;;;;;;3.38;2.50;;;13.70;62.20;;;;;;5020625;28;20161;-83
2023/04/17 02:13:23;;;;;;;3.45;2.22;;;13.70;62.20;;;;;;5023036;28;20026;-82
2023/04/17 02:15:50;;;;;;;3.85;2.70;;;13.70;62.20;;;;;;5025233;28;20041;-82
2023/04/17 02:18:16;;;;;;;5.13;2.90;;;13.60;62.10;;;;;;4993249;28;20025;-83
2023/04/17 02:20:42;;;;;;;3.45;2.33;;;13.60;62.10;;;;;;5027229;28;20033;-82
2023/04/17 02:23:08;;;;;;;4.65;2.55;;;13.60;62.20;;;;;;5020390;28;20029;-82
2023/04/17 02:25:34;;;;;;;5.28;3.17;;;13.60;62.20;;;;;;5025356;28;20105;-81
2023/04/17 02:28:00;;;;;;;4.72;2.30;;;13.60;62.20;;;;;;5027034;28;20038;-81
2023/04/17 02:30:27;;;;;;;3.83;2.78;;;13.70;62.40;;;;;;5026668;28;20347;-82
2023/04/17 02:32:55;;;;;;;3.40;2.97;;;13.70;62.70;;;;;;5009231;28;20511;-86
2023/04/17 02:35:23;;;;;;;6.32;2.78;;;13.70;62.40;;;;;;5008693;28;20132;-83
2023/04/17 02:37:49;;;;;;;2.75;2.20;;;13.70;62.40;;;;;;5009701;28;20037;-84
2023/04/17 02:40:15;;;;;;;3.50;2.80;;;13.70;62.40;;;;;;5026391;28;20037;-83
2023/04/17 02:42:41;;;;;;;3.85;2.67;;;13.70;62.40;;;;;;5024314;28;20066;-84
2023/04/17 02:45:08;;;;;;;3.70;2.95;;;13.60;62.20;;;;;;5022504;28;20087;-85
2023/04/17 02:47:34;;;;;;;3.08;2.67;;;13.70;62.40;;;;;;5016466;28;20134;-84
2023/04/17 02:50:01;;;;;;;4.40;2.47;;;13.70;62.40;;;;;;5003453;28;20065;-83
2023/04/17 02:52:32;;;;;;;3.70;3.00;;;13.70;62.50;;;;;;4994560;28;20111;-83
2023/04/17 02:54:59;;;;;;;3.88;2.97;;;13.70;62.50;;;;;;4986110;28;20076;-85
2023/04/17 02:57:26;;;;;;;3.45;2.50;;;13.70;62.50;;;;;;5005633;28;20374;-80
2023/04/17 02:59:52;;;;;;;3.30;2.35;;;13.70;62.50;;;;;;5008246;28;20086;-82
2023/04/17 03:02:21;;;;;;;4.82;2.97;;;13.70;62.50;;;;;;5009510;28;20038;-82
2023/04/17 03:04:50;;;;;;;5.05;2.50;;;13.70;62.50;;;;;;4993616;28;20393;-82
2023/04/17 03:07:19;;;;;;;4.40;2.85;;;13.70;62.60;;;;;;4989372;28;20045;-82
2023/04/17 03:09:49;;;;;;;4.03;2.75;;;13.70;62.60;;;;;;5021284;28;20045;-81
2023/04/17 03:12:16;;;;;;;3.25;2.45;;;13.70;62.60;;;;;;4987272;28;20044;-81
2023/04/17 03:14:42;;;;;;;3.97;2.80;;;13.60;62.40;;;;;;5026237;28;20385;-81
2023/04/17 03:17:09;;;;;;;3.53;2.72;;;13.60;62.50;;;;;;4995902;28;20076;-80
2023/04/17 03:19:36;;;;;;;3.70;2.70;;;13.60;62.50;;;;;;5008293;28;20227;-79
2023/04/17 03:22:02;;;;;;;3.58;2.83;;;13.60;62.50;;;;;;5007944;28;20041;-83
2023/04/17 03:24:30;;;;;;;5.25;2.95;;;13.60;62.50;;;;;;5025822;28;20041;-82
2023/04/17 03:26:58;;;;;;;3.40;2.20;;;13.60;62.60;;;;;;5006882;28;20029;-81
2023/04/17 03:29:25;;;;;;;2.92;2.47;;;13.60;62.60;;;;;;5001534;28;20052;-82
2023/04/17 03:31:51;;;;;;;3.90;2.28;;;13.50;62.50;;;;;;5026750;28;20501;-84
2023/04/17 03:34:18;;;;;;;3.67;2.35;;;13.50;62.50;;;;;;5024825;28;20026;-84
2023/04/17 03:36:44;;;;;;;6.28;2.80;;;13.50;62.60;;;;;;5007215;28;20052;-82
2023/04/17 03:39:10;;;;;;;4.13;2.53;;;13.50;62.60;;;;;;5008515;28;20397;-82
2023/04/17 03:41:37;;;;;;;3.67;2.55;;;13.50;62.70;;;;;;5007033;28;20441;-82
2023/04/17 03:44:07;;;;;;;5.35;2.60;;;13.50;62.70;;;;;;5012393;28;20465;-82
2023/04/17 03:46:34;;;;;;;2.97;2.53;;;13.50;62.80;;;;;;5019840;28;20049;-83
2023/04/17 03:49:00;;;;;;;4.45;2.13;;;13.50;62.80;;;;;;5015926;28;20066;-84
2023/04/17 03:51:27;;;;;;;5.50;2.70;;;13.40;62.70;;;;;;5013946;28;20104;-83
2023/04/17 03:53:57;;;;;;;3.88;2.35;;;13.40;62.70;;;;;;5009466;28;20226;-83
2023/04/17 03:56:24;;;;;;;4.95;2.30;;;13.40;62.70;;;;;;5017282;28;20589;-83
2023/04/17 03:58:51;;;;;;;4.35;2.40;;;13.40;62.80;;;;;;5022834;28;20078;-83
2023/04/17 04:01:18;;;;;;;3.15;2.63;;;13.40;62.80;;;;;;5024992;28;20034;-85
2023/04/17 04:04:00;;;;;;;4.18;2.90;;;13.40;62.80;;;;;;5024923;28;20030;-84
2023/04/17 04:06:28;;;;;;;3.17;2.67;;;13.40;62.80;;;;;;5021031;28;20394;-85
2023/04/17 04:08:55;;;;;;;2.92;2.65;;;13.40;62.80;;;;;;5024151;28;20033;-83
2023/04/17 04:11:22;;;;;;;4.07;2.45;;;13.40;62.80;;;;;;5007419;28;20049;-84
2023/04/17 04:13:48;;;;;;;4.95;2.47;;;13.40;62.80;;;;;;5019266;28;20026;-83
2023/04/17 04:16:14;;;;;;;2.35;2.15;;;13.40;62.80;;;;;;5025192;28;20165;-83
2023/04/17 04:18:42;;;;;;;3.25;2.40;;;13.40;62.80;;;;;;5023843;28;20108;-83
2023/04/17 04:21:10;;;;;;;3.08;2.50;;;13.50;63.00;;;;;;5024570;28;20033;-83
2023/04/17 04:23:40;;;;;;;2.72;2.50;;;13.40;62.80;;;;;;5022125;28;20368;-81
2023/04/17 04:26:07;;;;;;;3.97;2.35;;;13.40;62.90;;;;;;5026153;28;20057;-81
2023/04/17 04:28:40;;;;;;;3.20;2.40;;;13.40;63.00;;;;;;5018550;28;20070;-82
2023/04/17 04:31:17;;;;;;;3.05;2.38;;;13.40;63.00;;;;;;5025558;28;20029;-82
2023/04/17 04:33:44;;;;;;;3.38;2.20;;;13.40;63.50;;;;;;5026830;28;20487;-81
2023/04/17 04:36:12;;;;;;;4.43;2.65;;;13.40;63.00;;;;;;5026323;28;20025;-81
2023/04/17 04:38:39;;;;;;;4.30;2.20;;;13.30;62.90;;;;;;5028159;28;20616;-81
2023/04/17 04:41:16;;;;;;;2.42;2.22;;;13.30;63.00;;;;;;5025201;28;20026;-81
2023/04/17 04:43:43;;;;;;;4.28;2.40;;;13.30;63.00;;;;;;5029545;28;20053;-81
2023/04/17 04:46:10;;;;;;;2.50;2.30;;;13.30;63.00;;;;;;5028522;28;20087;-81
2023/04/17 04:48:40;;;;;;;4.03;2.50;;;13.30;63.10;;;;;;5010164;28;20485;-81
2023/04/17 04:51:06;;;;;;;4.13;2.40;;;13.30;63.10;;;;;;5020868;28;20043;-81
2023/04/17 04:53:32;;;;;;;5.03;3.17;;;13.30;63.10;;;;;;5016676;28;20125;-82
2023/04/17 04:55:58;;;;;;;6.47;2.42;;;13.30;63.20;;;;;;5024160;28;20120;-81
2023/04/17 04:58:28;;;;;;;6.72;3.53;;;13.30;63.20;;;;;;5015747;28;20124;-82
2023/04/17 05:00:57;;;;;;;3.00;2.00;;;13.30;63.20;;;;;;5035414;28;20048;-83
2023/04/17 05:03:30;;;;;;;4.47;3.15;;;13.30;63.20;;;;;;5015003;28;20540;-83
2023/04/17 05:05:57;;;;;;;3.92;2.38;;;13.30;63.20;;;;;;5004825;28;20397;-82
2023/04/17 05:08:29;;;;;;;4.07;2.22;;;13.30;63.20;;;;;;5011349;28;20561;-82
2023/04/17 05:11:03;;;;;;;3.08;2.60;;;13.30;63.20;;;;;;5018775;28;20034;-82
2023/04/17 05:13:29;;;;;;;5.22;2.97;;;13.30;63.20;;;;;;5007584;28;20405;-82
2023/04/17 05:15:56;;;;;;;3.40;2.28;;;13.30;63.20;;;;;;5019547;28;20041;-82
2023/04/17 05:18:25;;;;;;;3.13;2.33;;;13.30;63.20;;;;;;5017603;28;20120;-81
2023/04/17 05:20:51;;;;;;;3.72;2.35;;;13.30;63.30;;;;;;5017782;28;20592;-82
2023/04/17 05:23:20;;;;;;;2.78;2.58;;;13.30;63.30;;;;;;5019636;28;20112;-83
2023/04/17 05:25:47;;;;;;;3.00;2.38;;;13.30;63.30;;;;;;5002504;28;20034;-82
2023/04/17 05:28:14;;;;;;;3.65;2.42;;;13.30;63.40;;;;;;5020015;28;20025;-84
2023/04/17 05:30:41;;;;;;;3.58;2.80;;;13.30;63.40;;;;;;5021582;28;20385;-82
2023/04/17 05:33:16;;;;;;;4.75;2.90;;;13.30;63.40;;;;;;5013259;28;20041;-83
2023/04/17 05:36:01;;;;;;;3.70;2.65;;;13.30;63.40;;;;;;5006895;28;20041;-84
2023/04/17 05:38:30;;;;;;;3.17;2.08;;;13.30;63.50;;;;;;5012603;28;20584;-82
2023/04/17 05:40:56;;;;;;;4.10;2.72;;;13.30;63.50;;;;;;5016976;28;20030;-83
2023/04/17 05:43:22;;;;;;;4.85;2.30;;;13.30;63.50;;;;;;4995983;28;20068;-83
2023/04/17 05:45:48;;;;;;;4.82;2.92;;;13.30;63.50;;;;;;5020208;28;20116;-83
2023/04/17 05:48:14;;;;;;;4.97;2.75;;;13.30;63.50;;;;;;5019068;28;20559;-89
2023/04/17 05:50:40;;;;;;;4.68;2.90;;;13.30;63.50;;;;;;5013537;28;20658;-88
2023/04/17 05:53:07;;;;;;;3.50;2.25;;;13.40;63.70;;;;;;5008897;28;20034;-89
2023/04/17 05:55:38;;;;;;;2.47;2.25;;;13.40;63.70;;;;;;5002065;28;20037;-84
2023/04/17 05:58:09;;;;;;;4.05;2.83;;;13.40;64.20;;;;;;4980696;28;20041;-85
2023/04/17 06:00:36;;;;;;;5.65;2.45;;;13.40;63.60;;;;;;5005760;28;20086;-86
2023/04/17 06:03:05;;;;;;;3.53;2.70;;;13.40;63.60;;;;;;5004241;28;20563;-83
2023/04/17 06:05:36;;;;;;;5.68;2.80;;;13.40;63.60;;;;;;5013253;28;20157;-84
2023/04/17 06:08:02;;;;;;;4.72;3.47;;;13.40;63.60;;;;;;5032922;28;20099;-84
2023/04/17 06:10:28;;;;;;;4.53;2.42;;;13.40;63.60;;;;;;5026859;28;20044;-85
2023/04/17 06:12:54;;;;;;;6.03;2.65;;;13.40;63.70;;;;;;5040744;28;20105;-86
2023/04/17 06:15:21;;;;;;;5.15;2.55;;;13.40;63.70;;;;;;5025211;28;20079;-89
2023/04/17 06:17:47;;;;;;;4.53;2.95;;;13.40;63.70;;;;;;5024925;28;20063;-86
2023/04/17 06:20:13;;;;;;;3.53;2.33;;;13.40;63.70;;;;;;5047020;28;20060;-83
2023/04/17 06:22:43;;;;;;;3.65;2.75;;;13.40;63.70;;;;;;5029615;28;20085;-86
2023/04/17 06:25:09;;;;;;;3.63;2.65;;;13.40;63.70;;;;;;5021337;28;20037;-87
2023/04/17 06:27:35;;;;;;;3.33;2.35;;;13.50;63.90;;;;;;4983817;28;20408;-87
2023/04/17 06:30:02;;;;;;;4.72;3.10;;;13.50;63.90;;;;;;4987081;28;20038;-86
2023/04/17 06:32:30;;;;;;;5.13;2.90;;;13.50;63.90;;;;;;5000396;28;20232;-91
2023/04/17 06:34:56;;;;;;;3.78;2.50;;;13.50;63.90;;;;;;5006286;28;20095;-91
2023/04/17 06:37:31;;;;;;;5.60;2.65;;;13.50;63.90;;;;;;4996192;28;20456;-90
2023/04/17 06:39:57;;;;;;;3.88;2.47;;;13.50;63.90;;;;;;4996090;28;20087;-90
2023/04/17 06:42:23;;;;;;;4.63;2.60;;;13.50;63.90;;;;;;4995271;28;20092;-90
2023/04/17 06:44:57;;;;;;;7.40;2.78;;;13.60;64.10;;;;;;4996023;28;20034;-88
2023/04/17 06:47:23;;;;;;;4.25;2.63;;;13.60;64.40;;;;;;4995888;28;20103;-87
2023/04/17 06:49:49;;;;;;;4.38;2.78;;;13.60;64.10;;;;;;5008521;28;20142;-88
2023/04/17 06:52:18;;;;;;;4.68;2.88;;;13.60;64.10;;;;;;4998774;28;20409;-87
2023/04/17 06:54:44;;;;;;;5.78;2.58;;;13.60;64.10;;;;;;5007132;28;20064;-91
2023/04/17 06:57:11;;;;;;;4.63;2.55;;;13.70;64.30;;;;;;5002283;28;20061;-94
2023/04/17 06:59:37;;;;;;;4.53;2.78;;;13.70;64.30;;;;;;5018283;28;20531;-94
2023/04/17 07:02:03;;;;;;;3.22;2.58;;;13.80;64.50;;;;;;5015014;28;20190;-86
2023/04/17 07:04:30;;;;;;;4.60;2.25;;;13.80;64.50;;;;;;5020130;28;20112;-85
2023/04/17 07:06:56;;;;;;;3.70;2.50;;;13.90;64.70;;;;;;5012012;28;20040;-90
2023/04/17 07:09:24;;;;;;;5.45;2.92;;;14.00;64.80;;;;;;5009875;28;20044;-85
2023/04/17 07:11:50;;;;;;;4.75;2.58;;;14.10;65.00;;;;;;5016811;28;20217;-86
2023/04/17 07:14:16;;;;;;;4.20;2.38;;;14.10;65.00;;;;;;5012090;28;20017;-85
2023/04/17 07:16:42;;;;;;;5.03;2.40;;;14.20;65.10;;;;;;5001232;28;20610;-86
2023/04/17 07:19:08;;;;;;;3.88;2.22;;;14.30;65.30;;;;;;4996527;28;20131;-83
2023/04/17 07:21:34;;;;;;;5.35;2.72;;;14.40;65.50;;;;;;5014473;28;20037;-83
2023/04/17 07:24:00;;;;;;;4.95;2.17;;;14.40;65.40;;;;;;5010215;28;20042;-81
2023/04/17 07:26:25;;;;;;;3.40;2.33;;;14.50;65.60;;;;;;5002063;28;20033;-83
2023/04/17 07:28:51;;;;;;;6.25;2.97;;;14.60;65.70;;;;;;5010366;28;20068;-83
2023/04/17 07:31:17;;;;;;;2.92;2.50;;;14.60;65.50;;;;;;5012278;28;20072;-83
2023/04/17 07:33:43;;;;;;;3.10;2.80;;;14.70;65.60;;;;;;5009538;28;20029;-85
2023/04/17 07:36:10;;;;;;;3.72;3.08;;;14.80;65.60;;;;;;5016013;28;20065;-83
2023/04/17 07:38:36;;;;;;;3.17;2.20;;;14.80;65.50;;;;;;5012009;28;20437;-80
2023/04/17 07:41:02;;;;;;;4.10;2.45;;;14.80;65.40;;;;;;5007171;28;20042;-83
2023/04/17 07:43:29;;;;;;;6.47;3.08;;;14.90;65.50;;;;;;5018050;28;20041;-83
2023/04/17 07:45:55;;;;;;;4.47;2.70;;;14.90;65.50;;;;;;4994828;28;20084;-84
2023/04/17 07:48:23;;;;;;;3.88;2.38;;;14.90;65.50;;;;;;4994055;28;20567;-83
2023/04/17 07:50:49;;;;;;;7.10;3.05;;;14.80;65.80;;;;;;5003445;28;20039;-83
2023/04/17 07:53:17;;;;;;;3.90;3.17;;;14.80;65.30;;;;;;5008824;28;20381;-82
2023/04/17 07:55:43;;;;;;;5.70;2.72;;;14.80;65.30;;;;;;5019155;28;20033;-80
2023/04/17 07:58:10;;;;;;;8.50;3.28;;;14.80;65.30;;;;;;5015478;28;20036;-82
2023/04/17 08:00:42;;;;;;;6.80;3.35;;;14.80;65.40;;;;;;5020407;28;20029;-90
2023/04/17 08:03:08;;;;;;;8.07;3.85;;;14.90;65.90;;;;;;5002332;28;20044;-81
2023/04/17 08:05:34;;;;;;;8.07;3.85;;;15.00;66.00;;;;;;5017212;28;20033;-80
2023/04/17 08:08:00;;;;;;;5.30;2.72;;;15.00;66.00;;;;;;5017311;28;20054;-82
2023/04/17 08:10:27;;;;;;;5.53;3.30;;;15.00;65.90;;;;;;5011416;28;20429;-78
2023/04/17 08:12:53;;;;;;;8.38;4.32;;;15.10;66.00;;;;;;5018241;28;20178;-78
2023/04/17 08:15:20;;;;;;;6.35;3.53;;;15.10;65.90;;;;;;5018905;28;20301;-81
2023/04/17 08:17:45;;;;;;;5.10;2.97;;;15.10;65.80;;;;;;5017106;28;20156;-82
2023/04/17 08:20:12;;;;;;;6.53;3.20;;;15.20;65.90;;;;;;5007999;28;20120;-79
2023/04/17 08:22:40;;;;;;;7.88;3.20;;;15.20;65.90;;;;;;5014919;28;20041;-82
2023/04/17 08:25:08;;;;;;;5.07;3.28;;;15.30;66.00;;;;;;5015174;28;20559;-81
2023/04/17 08:27:35;;;;;;;9.48;4.13;;;15.30;65.90;;;;;;5017315;28;20049;-83
2023/04/17 08:30:03;;;;;;;5.10;3.42;;;15.50;66.00;;;;;;5012528;28;20117;-81
2023/04/17 08:32:29;;;;;;;5.82;3.53;;;15.60;66.00;;;;;;5018281;28;20084;-81
2023/04/17 08:34:57;;;;;;;5.75;3.47;;;15.70;65.90;;;;;;5010369;28;20113;-82
2023/04/17 08:37:23;;;;;;;4.57;3.22;;;15.80;65.90;;;;;;5007637;28;20100;-79
2023/04/17 08:39:51;;;;;;;5.57;3.90;;;15.90;65.80;;;;;;5013198;28;20536;-79
2023/04/17 08:42:17;;;;;;;3.35;3.00;;;15.90;65.60;;;;;;5011507;28;20087;-80
2023/04/17 08:44:43;;;;;;;5.55;3.63;;;16.10;65.80;;;;;;4998474;28;20034;-79
2023/04/17 08:47:11;;;;;;;6.05;3.13;;;16.10;65.70;;;;;;5013241;28;20036;-82
2023/04/17 08:49:38;;;;;;;4.97;3.58;;;16.20;66.20;;;;;;5015471;28;20064;-78
2023/04/17 08:52:06;;;;;;;4.38;3.20;;;16.30;65.60;;;;;;5016012;28;20045;-79
2023/04/17 08:54:35;;;;;;;4.57;3.95;;;16.50;65.60;;;;;;4997980;28;20081;-79
2023/04/17 08:57:02;;;;;;;5.95;3.95;;;16.50;65.40;;;;;;5008216;28;20313;-79
2023/04/17 08:59:29;;;;;;;4.45;3.30;;;16.60;65.40;;;;;;4995427;28;20037;-80
2023/04/17 09:02:03;;;;;;;4.43;3.50;;;16.70;65.50;;;;;;5016270;28;20033;-80
2023/04/17 09:04:40;;;;;;;6.63;3.65;;;16.70;65.30;;;;;;5014603;28;20033;-80
2023/04/17 09:07:07;;;;;;;4.72;3.70;;;16.90;65.40;;;;;;5003709;28;20037;-80
2023/04/17 09:09:49;;;;;;;4.50;3.38;;;16.90;65.10;;;;;;5019996;28;20025;-81
2023/04/17 09:12:16;;;;;;;4.82;3.45;;;17.00;65.10;;;;;;5007078;28;20046;-80
2023/04/17 09:14:42;;;;;;;5.30;3.88;;;16.90;64.90;;;;;;5017583;28;20112;-78
2023/04/17 09:17:08;;;;;;;5.05;3.63;;;17.00;65.10;;;;;;5017338;28;20071;-80
2023/04/17 09:19:34;;;;;;;6.70;4.63;;;17.00;65.10;;;;;;4993973;28;20029;-79
2023/04/17 09:22:20;;;;;;;5.68;3.42;;;16.90;65.00;;;;;;5020858;28;20037;-79
2023/04/17 09:24:47;;;;;;;8.70;3.90;;;16.90;64.90;;;;;;5008421;28;20041;-81
2023/04/17 09:27:20;;;;;;;7.60;3.95;;;16.90;65.00;;;;;;5009617;28;20097;-82
2023/04/17 09:30:01;;;;;;;5.47;4.50;;;17.00;65.10;;;;;;5010437;28;20041;-80
2023/04/17 09:32:29;;;;;;;5.55;4.30;;;16.90;64.90;;;;;;5020956;28;20180;-79
2023/04/17 09:34:57;;;;;;;5.13;3.95;;;16.90;64.90;;;;;;5019833;28;20516;-79
2023/04/17 09:37:23;;;;;;;6.30;3.78;;;17.00;65.00;;;;;;5020010;28;20103;-84
2023/04/17 09:39:58;;;;;;;8.65;4.72;;;17.00;64.90;;;;;;5009439;28;20042;-88
2023/04/17 09:42:25;;;;;;;5.05;4.35;;;17.00;64.90;;;;;;4993949;28;20485;-89
2023/04/17 09:44:51;;;;;;;5.25;4.05;;;17.00;64.80;;;;;;5005314;28;20121;-85
2023/04/17 09:47:17;;;;;;;6.10;4.30;;;17.00;64.80;;;;;;5005223;28;20029;-88
2023/04/17 09:49:51;;;;;;;5.78;3.92;;;17.00;64.80;;;;;;5007285;28;20444;-78
2023/04/17 09:52:18;;;;;;;7.88;4.95;;;17.00;64.70;;;;;;4990673;28;20033;-85
2023/04/17 09:54:47;;;;;;;8.18;4.72;;;17.00;64.60;;;;;;5018643;28;20037;-86
2023/04/17 09:57:13;;;;;;;5.47;4.55;;;17.00;64.60;;;;;;5019197;28;20059;-81
2023/04/17 09:59:40;;;;;;;5.35;3.95;;;17.00;64.60;;;;;;5009619;28;20030;-81
2023/04/17 10:02:11;;;;;;;5.40;4.55;;;17.10;64.70;;;;;;4986814;28;20034;-81
2023/04/17 10:04:41;;;;;;;7.00;4.88;;;17.10;64.60;;;;;;5013812;28;20055;-81
2023/04/17 10:07:07;;;;;;;6.95;4.00;;;17.10;64.50;;;;;;5004171;28;20396;-80
2023/04/17 10:09:33;;;;;;;7.30;5.82;;;17.10;64.50;;;;;;5006139;28;20504;-81
2023/04/17 10:12:02;;;;;;;5.55;4.93;;;17.20;64.50;;;;;;5009224;28;20053;-82
2023/04/17 10:14:39;;;;;;;9.48;5.85;;;17.20;64.60;;;;;;5004295;28;20137;-81
2023/04/17 10:17:33;;;;;;;6.15;5.07;;;17.30;64.60;;;;;;5006174;28;20061;-81
2023/04/17 10:20:14;;;;;;;5.10;4.60;;;17.40;64.60;;;;;;5015750;28;20050;-78
2023/04/17 10:22:42;;;;;;;7.20;5.63;;;17.60;64.70;;;;;;5019316;28;20050;-80
2023/04/17 10:25:11;;;;;;;7.90;4.80;;;17.70;64.50;;;;;;5017649;28;20088;-80
2023/04/17 10:27:40;;;;;;;6.07;4.43;;;17.90;64.50;;;;;;5014730;28;20474;-81
2023/04/17 10:30:09;;;;;;;4.90;4.40;;;18.00;64.40;;;;;;5014711;28;20727;-80
2023/04/17 10:32:35;;;;;;;6.57;4.82;;;18.20;64.40;;;;;;5010758;28;20029;-80
2023/04/17 10:35:15;;;;;;;7.82;5.82;;;18.30;64.20;;;;;;5006171;28;20038;-81
2023/04/17 10:37:46;;;;;;;5.82;5.20;;;18.40;64.20;;;;;;5008276;28;20635;-79
2023/04/17 10:40:19;;;;;;;5.85;5.25;;;18.60;64.20;;;;;;5009097;28;20041;-82
2023/04/17 10:43:10;;;;;;;5.03;4.57;;;18.80;64.20;;;;;;5012045;28;20401;-79
2023/04/17 10:45:56;;;;;;;6.60;4.82;;;19.00;64.00;;;;;;5018353;28;20504;-84
2023/04/17 10:48:45;;;;;;;7.00;4.93;;;19.20;63.90;;;;;;5018069;28;20116;-81
2023/04/17 10:51:36;;;;;;;5.95;5.40;;;19.40;63.80;;;;;;4991122;28;20033;-81
2023/04/17 10:54:09;;;;;;;6.15;5.05;;;19.60;63.70;;;;;;5012312;28;20057;-79
2023/04/17 10:56:48;;;;;;;8.07;5.38;;;19.50;63.50;;;;;;5019154;28;20037;-79
2023/04/17 10:59:18;;;;;;;11.02;6.85;;;19.60;63.70;;;;;;5003576;28;20521;-84
2023/04/17 11:01:47;;;;;;;14.13;8.10;;;19.60;63.70;;;;;;4977626;28;20525;-81
2023/04/17 11:04:23;;;;;;;12.65;7.80;;;19.70;64.00;;;;;;4978123;28;20364;-82
2023/04/17 11:06:51;;;;;;;13.45;8.07;;;19.70;63.90;;;;;;5005400;28;20033;-80
2023/04/17 11:09:20;;;;;;;38.33;21.50;;;19.70;63.90;;;;;;5010869;28;20505;-78
2023/04/17 11:11:46;;;;;;;30.50;18.58;;;19.70;64.00;;;;;;5009892;28;20061;-75
2023/04/17 11:14:17;;;;;;;23.17;15.05;;;19.70;64.30;;;;;;4990268;28;20581;-82
2023/04/17 11:16:46;;;;;;;28.15;14.95;;;19.60;64.40;;;;;;5018862;28;20674;-81
2023/04/17 11:19:18;;;;;;;22.90;12.88;;;19.60;64.50;;;;;;5007714;28;20261;-80
2023/04/17 11:21:46;;;;;;;21.73;14.05;;;19.60;64.60;;;;;;5012932;28;20038;-82
2023/04/17 11:24:12;;;;;;;17.73;11.75;;;19.60;64.60;;;;;;5011198;28;20029;-83
2023/04/17 11:26:42;;;;;;;15.40;11.02;;;19.50;64.60;;;;;;5016543;28;20029;-82
2023/04/17 11:29:16;;;;;;;14.77;11.23;;;19.50;64.70;;;;;;5013249;28;20140;-84
2023/04/17 11:31:43;;;;;;;15.65;10.95;;;19.50;64.70;;;;;;4993363;28;20072;-82
2023/04/17 11:34:10;;;;;;;19.13;10.77;;;19.50;64.70;;;;;;4999920;28;20653;-84
2023/04/17 11:36:36;;;;;;;19.05;10.80;;;19.50;64.70;;;;;;5011382;28;20366;-79
2023/04/17 11:39:02;;;;;;;13.32;9.40;;;19.50;64.70;;;;;;5005086;28;20152;-80
2023/04/17 11:41:39;;;;;;;13.38;9.18;;;19.60;64.80;;;;;;4998476;28;20041;-79
2023/04/17 11:44:12;;;;;;;11.60;9.68;;;19.50;64.40;;;;;;4985194;28;20057;-79
2023/04/17 11:46:38;;;;;;;37.00;10.25;;;19.60;64.40;;;;;;5013220;28;20396;-79
2023/04/17 11:49:04;;;;;;;12.55;9.23;;;19.60;64.40;;;;;;5040092;28;20057;-80
2023/04/17 11:51:31;;;;;;;10.80;9.00;;;19.50;64.30;;;;;;5044914;28;20014;-78
2023/04/17 11:53:57;;;;;;;13.88;9.00;;;19.60;64.50;;;;;;5038222;28;20034;-78
2023/04/17 11:56:27;;;;;;;10.35;8.65;;;19.50;64.40;;;;;;5035939;28;20158;-80
2023/04/17 11:58:55;;;;;;;9.95;8.00;;;19.40;64.30;;;;;;5044081;28;20318;-78
2023/04/17 12:01:24;;;;;;;14.35;9.20;;;19.40;64.30;;;;;;5044928;28;20021;-79
2023/04/17 12:03:51;;;;;;;13.50;8.88;;;19.40;64.40;;;;;;5027348;28;20563;-77
2023/04/17 12:06:17;;;;;;;12.50;8.48;;;19.30;64.40;;;;;;5016830;28;20072;-78
2023/04/17 12:08:52;;;;;;;8.52;6.78;;;19.30;64.50;;;;;;5007223;28;20696;-77
2023/04/17 12:11:34;;;;;;;12.25;7.72;;;19.30;64.50;;;;;;5017865;28;20418;-77
2023/04/17 12:14:01;;;;;;;10.23;6.40;;;19.50;64.70;;;;;;5003642;28;20354;-81
2023/04/17 12:16:28;;;;;;;9.25;7.07;;;19.70;64.60;;;;;;5002156;28;20044;-81
2023/04/17 12:18:55;;;;;;;8.82;6.68;;;20.00;64.60;;;;;;5004732;28;20030;-79
2023/04/17 12:21:22;;;;;;;8.52;5.97;;;20.20;64.40;;;;;;5012586;28;20041;-85
2023/04/17 12:23:49;;;;;;;8.45;6.05;;;20.50;64.30;;;;;;4988497;28;20037;-84
2023/04/17 12:26:15;;;;;;;5.78;5.20;;;20.70;64.10;;;;;;5016096;28;20114;-79
2023/04/17 12:28:41;;;;;;;6.22;5.32;;;20.80;63.80;;;;;;5014977;28;20026;-80
2023/04/17 12:31:07;;;;;;;6.30;5.30;;;20.90;63.70;;;;;;5014371;28;20195;-78
2023/04/17 12:33:33;;;;;;;5.70;5.20;;;21.00;63.70;;;;;;4991404;28;20050;-81
2023/04/17 12:36:00;;;;;;;5.57;4.55;;;21.00;63.70;;;;;;5017260;28;20065;-79
2023/04/17 12:38:26;;;;;;;5.30;4.55;;;20.90;63.60;;;;;;5013415;28;20140;-80
2023/04/17 12:40:52;;;;;;;5.22;4.72;;;20.80;63.50;;;;;;5004176;28;20761;-82
2023/04/17 12:43:18;;;;;;;3.40;3.10;;;20.80;63.50;;;;;;5013047;28;20064;-78
2023/04/17 12:45:44;;;;;;;3.67;3.38;;;20.80;63.60;;;;;;5019178;28;20041;-81
2023/04/17 12:48:12;;;;;;;3.92;3.60;;;20.70;63.40;;;;;;5022162;28;20366;-79
2023/04/17 12:50:42;;;;;;;3.78;3.47;;;20.70;63.40;;;;;;5019572;28;20038;-79